createdAt,value
2018-12-11T05:45:24.673Z,6.57
2018-12-11T05:47:53.072Z,8.73
2018-12-11T05:50:21.486Z,10.53
2018-12-11T05:52:49.893Z,13.57
2018-12-11T05:55:18.322Z,6.47
2018-12-11T05:57:47.027Z,9.57
2018-12-11T06:00:15.399Z,9.53
2018-12-11T06:02:43.937Z,10.03
2018-12-11T06:05:12.689Z,6.80
2018-12-11T06:07:41.289Z,6.90
2018-12-11T06:10:10.406Z,9.23
2018-12-11T06:12:38.950Z,10.73
2018-12-11T06:15:07.972Z,6.40
2018-12-11T06:17:36.354Z,11.43
2018-12-11T06:20:05.688Z,10.77
2018-12-11T06:22:34.074Z,7.30
2018-12-11T06:25:03.690Z,9.00
2018-12-11T06:27:32.363Z,8.30
2018-12-11T06:30:00.971Z,8.80
2018-12-11T06:32:29.350Z,6.00
2018-12-11T06:34:57.770Z,10.43
2018-12-11T06:37:26.172Z,8.57
2018-12-11T06:39:54.534Z,6.87
2018-12-11T06:42:22.954Z,5.33
2018-12-11T06:44:51.595Z,9.60
2018-12-11T06:47:19.991Z,8.73
2018-12-11T06:49:48.872Z,6.50
2018-12-11T06:52:17.933Z,8.83
2018-12-11T06:54:46.901Z,9.90
2018-12-11T06:57:15.694Z,9.90
2018-12-11T06:59:44.327Z,7.60
2018-12-11T07:02:12.766Z,7.27
2018-12-11T07:04:41.950Z,9.13
2018-12-11T07:07:10.354Z,7.87
2018-12-11T07:09:39.070Z,6.40
2018-12-11T07:12:07.450Z,8.40
2018-12-11T07:14:36.123Z,4.00
2018-12-11T07:17:04.722Z,9.03
2018-12-11T07:19:33.542Z,8.07
2018-12-11T07:22:02.048Z,5.90
2018-12-11T07:24:31.082Z,4.73
2018-12-11T07:26:59.467Z,10.33
2018-12-11T07:29:27.886Z,9.00
2018-12-11T07:31:56.907Z,10.30
2018-12-11T07:34:25.394Z,8.73
2018-12-11T07:36:53.964Z,7.53
2018-12-11T07:39:22.820Z,7.70
2018-12-11T07:41:51.375Z,8.13
2018-12-11T07:44:19.787Z,8.47
2018-12-11T07:46:48.174Z,7.07
2018-12-11T07:49:16.611Z,8.23
2018-12-11T07:51:45.039Z,7.63
2018-12-11T07:54:13.884Z,4.83
2018-12-11T07:56:42.443Z,9.13
2018-12-11T07:59:10.886Z,6.57
2018-12-11T08:01:39.944Z,7.03
2018-12-11T08:04:08.875Z,8.13
2018-12-11T08:06:37.764Z,8.87
2018-12-11T08:09:08.136Z,9.90
2018-12-11T08:11:36.530Z,7.03
2018-12-11T08:14:05.494Z,8.97
2018-12-11T08:16:34.524Z,6.83
2018-12-11T08:19:03.556Z,7.57
2018-12-11T08:21:32.221Z,6.17
2018-12-11T08:24:01.131Z,8.37
2018-12-11T08:26:30.180Z,5.80
2018-12-11T08:28:58.596Z,7.80
2018-12-11T08:31:27.249Z,7.40
2018-12-11T08:33:56.404Z,6.07
2018-12-11T08:36:25.213Z,8.13
2018-12-11T08:38:55.107Z,5.17
2018-12-11T08:41:24.100Z,6.87
2018-12-11T08:43:52.565Z,6.30
2018-12-11T08:46:22.176Z,8.03
2018-12-11T08:48:51.053Z,6.57
2018-12-11T08:51:19.785Z,7.07
2018-12-11T08:53:48.370Z,5.20
2018-12-11T08:56:17.346Z,6.13
2018-12-11T08:58:46.751Z,7.73
2018-12-11T09:01:15.798Z,7.53
2018-12-11T09:03:44.192Z,10.37
2018-12-11T09:06:12.863Z,8.73
2018-12-11T09:08:41.481Z,6.70
2018-12-11T09:11:09.913Z,8.07
2018-12-11T09:13:38.292Z,5.67
2018-12-11T09:16:06.839Z,6.50
2018-12-11T09:18:35.458Z,6.93
2018-12-11T09:21:04.019Z,8.37
2018-12-11T09:23:32.660Z,5.00
2018-12-11T09:26:01.030Z,4.83
2018-12-11T09:28:29.449Z,8.43
2018-12-11T09:30:57.847Z,6.23
2018-12-11T09:33:26.218Z,8.83
2018-12-11T09:35:55.198Z,7.33
2018-12-11T09:38:23.616Z,8.93
2018-12-11T09:40:52.037Z,8.20
2018-12-11T09:43:20.636Z,5.90
2018-12-11T09:45:49.031Z,7.53
2018-12-11T09:48:18.025Z,5.37
2018-12-11T09:50:46.712Z,6.23
2018-12-11T09:53:15.335Z,7.20
2018-12-11T09:55:43.830Z,8.73
2018-12-11T09:58:12.739Z,7.60
2018-12-11T10:00:41.461Z,4.23
2018-12-11T10:03:10.210Z,8.07
2018-12-11T10:05:39.008Z,6.90
2018-12-11T10:08:08.122Z,5.17
2018-12-11T10:10:36.918Z,6.30
2018-12-11T10:13:05.798Z,7.53
2018-12-11T10:15:34.184Z,6.83
2018-12-11T10:18:03.123Z,5.07
2018-12-11T10:20:31.603Z,6.50
2018-12-11T10:23:01.726Z,9.43
2018-12-11T10:25:30.323Z,6.37
2018-12-11T10:27:59.078Z,9.57
2018-12-11T10:30:32.003Z,7.87
2018-12-11T10:33:00.919Z,5.67
2018-12-11T10:35:29.553Z,7.37
2018-12-11T10:37:58.758Z,5.30
2018-12-11T10:40:27.149Z,6.63
2018-12-11T10:42:55.815Z,7.60
2018-12-11T10:45:24.214Z,5.67
2018-12-11T10:47:52.636Z,11.73
2018-12-11T10:50:21.291Z,11.63
2018-12-11T10:52:49.833Z,8.17
2018-12-11T10:55:18.214Z,7.03
2018-12-11T10:57:46.736Z,7.33
2018-12-11T11:00:20.921Z,4.93
2018-12-11T11:02:55.170Z,9.03
2018-12-11T11:05:23.596Z,11.47
2018-12-11T11:07:52.582Z,5.27
2018-12-11T11:10:20.984Z,7.17
2018-12-11T11:12:49.757Z,6.63
2018-12-11T11:15:18.426Z,6.77
2018-12-11T11:17:46.878Z,8.07
2018-12-11T11:20:15.401Z,7.90
2018-12-11T11:22:43.810Z,6.50
2018-12-11T11:25:13.039Z,4.20
2018-12-11T11:27:41.436Z,8.90
2018-12-11T11:30:10.487Z,6.43
2018-12-11T11:32:39.085Z,7.63
2018-12-11T11:35:07.728Z,5.90
2018-12-11T11:37:36.113Z,5.60
2018-12-11T11:40:05.628Z,6.37
2018-12-11T11:42:34.207Z,5.83
2018-12-11T11:45:03.564Z,5.50
2018-12-11T11:47:31.996Z,6.30
2018-12-11T11:50:00.512Z,4.13
2018-12-11T11:52:29.205Z,7.17
2018-12-11T11:54:57.868Z,4.93
2018-12-11T11:57:29.743Z,5.10
2018-12-11T11:59:57.034Z,6.43
2018-12-11T12:02:25.547Z,5.63
2018-12-11T12:04:53.930Z,4.93
2018-12-11T12:07:22.543Z,4.17
2018-12-11T12:09:51.152Z,3.53
2018-12-11T12:12:20.177Z,5.00
2018-12-11T12:14:49.166Z,5.70
2018-12-11T12:17:18.013Z,5.30
2018-12-11T12:19:46.542Z,5.40
2018-12-11T12:22:14.951Z,4.70
2018-12-11T12:24:43.949Z,6.47
2018-12-11T12:27:12.592Z,5.30
2018-12-11T12:29:41.271Z,6.40
2018-12-11T12:32:09.967Z,6.90
2018-12-11T12:34:38.775Z,5.93
2018-12-11T12:37:07.703Z,6.10
2018-12-11T12:39:36.670Z,5.47
2018-12-11T12:42:05.320Z,8.23
2018-12-11T12:44:33.700Z,7.70
2018-12-11T12:47:02.278Z,5.53
2018-12-11T12:49:30.847Z,6.73
2018-12-11T12:51:59.241Z,5.50
2018-12-11T12:54:27.903Z,7.23
2018-12-11T12:56:56.843Z,5.57
2018-12-11T12:59:25.272Z,5.40
2018-12-11T13:01:53.691Z,7.07
2018-12-11T13:04:22.285Z,5.27
2018-12-11T13:06:51.308Z,6.67
2018-12-11T13:09:19.652Z,5.30
2018-12-11T13:11:48.689Z,6.63
2018-12-11T13:14:17.609Z,4.97
2018-12-11T13:16:46.054Z,5.03
2018-12-11T13:19:14.474Z,6.07
2018-12-11T13:21:43.066Z,6.97
2018-12-11T13:24:11.734Z,6.80
2018-12-11T13:26:40.473Z,7.20
2018-12-11T13:29:09.688Z,7.50
2018-12-11T13:31:38.087Z,5.50
2018-12-11T13:34:06.818Z,8.33
2018-12-11T13:36:35.802Z,8.57
2018-12-11T13:39:05.428Z,5.57
2018-12-11T13:41:33.855Z,6.57
2018-12-11T13:44:02.874Z,10.50
2018-12-11T13:46:32.374Z,5.33
2018-12-11T13:49:01.408Z,5.97
2018-12-11T13:51:30.395Z,7.17
2018-12-11T13:53:58.792Z,8.60
2018-12-11T13:56:27.444Z,7.23
2018-12-11T13:58:55.851Z,6.73
2018-12-11T14:01:24.250Z,7.57
2018-12-11T14:03:52.726Z,10.83
2018-12-11T14:06:21.284Z,8.03
2018-12-11T14:08:49.705Z,7.10
2018-12-11T14:11:18.107Z,6.03
2018-12-11T14:13:47.001Z,6.50
2018-12-11T14:16:15.402Z,8.77
2018-12-11T14:18:43.798Z,7.57
2018-12-11T14:21:13.017Z,7.63
2018-12-11T14:23:41.428Z,10.67
2018-12-11T14:26:09.998Z,6.47
2018-12-11T14:28:39.133Z,8.33
2018-12-11T14:31:08.243Z,9.03
2018-12-11T14:33:37.222Z,7.00
2018-12-11T14:36:05.658Z,7.53
2018-12-11T14:38:34.181Z,7.20
2018-12-11T14:41:02.893Z,9.70
2018-12-11T14:43:31.330Z,9.63
2018-12-11T14:45:59.706Z,8.27
2018-12-11T14:48:28.119Z,8.90
2018-12-11T14:50:56.697Z,7.70
2018-12-11T14:53:25.432Z,7.73
2018-12-11T14:55:54.038Z,9.27
2018-12-11T14:58:22.479Z,7.67
2018-12-11T15:00:51.393Z,8.50
2018-12-11T15:03:19.807Z,9.40
2018-12-11T15:05:48.191Z,7.13
2018-12-11T15:08:16.626Z,11.10
2018-12-11T15:10:45.341Z,10.10
2018-12-11T15:13:13.759Z,12.67
2018-12-11T15:15:42.840Z,11.73
2018-12-11T15:18:11.227Z,10.83
2018-12-11T15:20:39.739Z,12.53
2018-12-11T15:23:08.733Z,13.90
2018-12-11T15:25:38.235Z,15.30
2018-12-11T15:28:07.374Z,11.77
2018-12-11T15:30:36.901Z,11.73
2018-12-11T15:33:05.859Z,10.73
2018-12-11T15:35:34.280Z,10.57
2018-12-11T15:38:02.684Z,9.23
2018-12-11T15:40:31.529Z,9.93
2018-12-11T15:43:00.621Z,10.53
2018-12-11T15:45:29.322Z,14.90
2018-12-11T15:47:58.083Z,10.50
2018-12-11T15:50:26.685Z,10.37
2018-12-11T15:52:55.596Z,12.73
2018-12-11T15:55:24.106Z,10.10
2018-12-11T15:57:52.771Z,11.57
2018-12-11T16:00:21.784Z,10.50
2018-12-11T16:02:51.397Z,10.10
2018-12-11T16:05:19.783Z,11.10
2018-12-11T16:07:48.383Z,10.90
2018-12-11T16:10:17.071Z,12.23
2018-12-11T16:12:45.783Z,11.00
2018-12-11T16:15:14.745Z,12.27
2018-12-11T16:17:43.742Z,14.97
2018-12-11T16:20:12.575Z,11.47
2018-12-11T16:22:41.474Z,11.13
2018-12-11T16:25:09.980Z,11.17
2018-12-11T16:27:38.850Z,12.47
2018-12-11T16:30:07.913Z,12.53
2018-12-11T16:32:36.353Z,12.93
2018-12-11T16:35:05.471Z,13.83
2018-12-11T16:37:34.186Z,14.40
2018-12-11T16:40:04.743Z,13.00
2018-12-11T16:42:33.407Z,9.43
2018-12-11T16:45:02.210Z,14.30
2018-12-11T16:47:30.651Z,11.57
2018-12-11T16:49:59.115Z,12.57
2018-12-11T16:52:27.555Z,8.73
2018-12-11T16:54:55.948Z,14.00
2018-12-11T16:57:24.404Z,11.27
2018-12-11T16:59:52.941Z,9.97
2018-12-11T17:02:21.344Z,8.43
2018-12-11T17:04:49.994Z,10.87
2018-12-11T17:07:19.061Z,9.67
2018-12-11T17:09:47.558Z,10.20
2018-12-11T17:12:16.220Z,10.77
2018-12-11T17:14:44.779Z,9.60
2018-12-11T17:17:13.598Z,11.27
2018-12-11T17:19:42.159Z,10.40
2018-12-11T17:22:10.825Z,11.93
2018-12-11T17:24:39.526Z,13.27
2018-12-11T17:27:07.958Z,10.90
2018-12-11T17:29:36.422Z,11.73
2018-12-11T17:32:04.834Z,11.67
2018-12-11T17:34:33.612Z,11.60
2018-12-11T17:37:02.724Z,10.53
2018-12-11T17:39:31.379Z,12.87
2018-12-11T17:42:00.031Z,12.00
2018-12-11T17:44:28.675Z,12.43
2018-12-11T17:46:57.560Z,13.77
2018-12-11T17:49:26.237Z,12.83
2018-12-11T17:51:54.744Z,13.03
2018-12-11T17:54:24.390Z,12.10
2018-12-11T17:56:53.504Z,12.97
2018-12-11T17:59:22.068Z,12.17
2018-12-11T18:01:55.082Z,13.60
2018-12-11T18:04:23.754Z,13.33
2018-12-11T18:06:52.405Z,11.63
2018-12-11T18:09:21.129Z,13.40
2018-12-11T18:11:49.800Z,11.50
2018-12-11T18:14:18.764Z,10.63
2018-12-11T18:16:47.422Z,12.53
2018-12-11T18:19:15.921Z,11.17
2018-12-11T18:21:44.359Z,13.97
2018-12-11T18:24:13.171Z,11.27
2018-12-11T18:26:41.585Z,12.10
2018-12-11T18:29:10.037Z,11.40
2018-12-11T18:31:38.610Z,10.77
2018-12-11T18:34:11.133Z,10.67
2018-12-11T18:36:39.188Z,14.80
2018-12-11T18:39:08.981Z,14.57
2018-12-11T18:41:37.785Z,10.80
2018-12-11T18:44:06.414Z,11.23
2018-12-11T18:46:35.031Z,13.90
2018-12-11T18:49:03.477Z,12.27
2018-12-11T18:51:32.132Z,11.50
2018-12-11T18:54:00.532Z,10.93
2018-12-11T18:56:29.180Z,9.73
2018-12-11T18:58:57.541Z,11.33
2018-12-11T19:01:25.983Z,9.30
2018-12-11T19:03:54.614Z,11.07
2018-12-11T19:06:23.338Z,11.43
2018-12-11T19:08:52.065Z,11.90
2018-12-11T19:11:20.503Z,11.63
2018-12-11T19:13:48.963Z,13.23
2018-12-11T19:16:17.477Z,11.73
2018-12-11T19:18:46.082Z,12.87
2018-12-11T19:21:14.482Z,11.83
2018-12-11T19:24:58.395Z,14.40
2018-12-11T19:27:27.042Z,13.17
2018-12-11T19:29:55.576Z,11.83
2018-12-11T19:32:24.725Z,15.17
2018-12-11T19:34:53.105Z,14.03
2018-12-11T19:37:21.672Z,14.87
2018-12-11T19:39:50.533Z,15.37
2018-12-11T19:42:19.555Z,14.30
2018-12-11T19:44:48.308Z,12.83
2018-12-11T19:47:16.943Z,15.20
2018-12-11T19:49:45.591Z,13.70
2018-12-11T19:52:14.269Z,14.23
2018-12-11T19:54:42.668Z,16.67
2018-12-11T19:57:11.753Z,14.87
2018-12-11T19:59:40.454Z,15.13
2018-12-11T20:02:09.558Z,15.07
2018-12-11T20:04:38.635Z,14.33
2018-12-11T20:07:07.593Z,14.40
2018-12-11T20:09:38.147Z,15.07
2018-12-11T20:12:07.082Z,15.83
2018-12-11T20:14:35.844Z,16.60
2018-12-11T20:17:04.817Z,14.53
2018-12-11T20:19:33.454Z,15.47
2018-12-11T20:22:01.931Z,13.47
2018-12-11T20:24:30.619Z,14.90
2018-12-11T20:26:59.568Z,14.93
2018-12-11T20:29:27.980Z,16.50
2018-12-11T20:31:56.609Z,15.10
2018-12-11T20:34:25.369Z,17.37
2018-12-11T20:36:54.718Z,20.47
2018-12-11T20:39:23.278Z,13.73
2018-12-11T20:41:51.835Z,16.37
2018-12-11T20:44:20.328Z,15.47
2018-12-11T20:46:48.789Z,14.40
2018-12-11T20:49:17.435Z,14.17
2018-12-11T20:51:46.631Z,15.03
2018-12-11T20:54:15.122Z,13.40
2018-12-11T20:56:44.086Z,13.07
2018-12-11T20:59:12.994Z,12.40
2018-12-11T21:01:42.396Z,12.83
2018-12-11T21:04:10.818Z,12.77
2018-12-11T21:06:39.414Z,16.00
2018-12-11T21:09:13.076Z,14.40
2018-12-11T21:11:41.963Z,12.90
2018-12-11T21:14:10.353Z,11.47
2018-12-11T21:16:39.436Z,13.03
2018-12-11T21:19:08.769Z,13.20
2018-12-11T21:21:37.858Z,13.67
2018-12-11T21:24:08.901Z,11.47
2018-12-11T21:26:38.544Z,15.43
2018-12-11T21:29:07.434Z,14.17
2018-12-11T21:31:36.134Z,15.33
2018-12-11T21:34:04.994Z,17.17
2018-12-11T21:36:33.821Z,17.67
2018-12-11T21:39:02.523Z,17.23
2018-12-11T21:41:31.505Z,17.87
2018-12-11T21:43:59.955Z,16.63
2018-12-11T21:46:28.917Z,18.60
2018-12-11T21:48:57.888Z,16.37
2018-12-11T21:51:26.535Z,19.47
2018-12-11T21:53:54.963Z,13.27
2018-12-11T21:56:23.365Z,16.93
2018-12-11T21:58:52.326Z,16.03
2018-12-11T22:01:20.750Z,15.43
2018-12-11T22:03:49.399Z,15.43
2018-12-11T22:06:18.364Z,15.37
2018-12-11T22:08:46.762Z,15.10
2018-12-11T22:11:15.412Z,12.80
2018-12-11T22:13:43.819Z,15.77
2018-12-11T22:16:12.506Z,17.43
2018-12-11T22:18:40.902Z,15.90
2018-12-11T22:21:09.837Z,13.83
2018-12-11T22:23:39.101Z,13.90
2018-12-11T22:26:07.511Z,16.20
2018-12-11T22:28:36.302Z,14.60
